Terminal Aerodrome Forecast
Issued by NWS Denver/Boulder, CO

Home | Current Version | Previous Version | Text Only | Print | Product List | Glossary On
Versions: 1 2 3 4 5 6 7 8 9 10 11 12 13 14 15 16 17 18 19 20 21 22 23 24 25 26 27 28 29 30 31 32 33 34 35 36 37 38 39 40 41 42 43 44 45 46 47 48 49 50
886
FTUS45 KBOU 181720
TAFDEN
TAF
KDEN 181720Z 1818/1924 31006KT P6SM FEW120 BKN220
     FM181830 01010KT P6SM FEW100 BKN220
     FM182000 06008KT P6SM FEW220
     FM182300 12008KT P6SM FEW220
     FM190100 17012KT P6SM FEW220
     FM191300 22010KT P6SM FEW100 BKN200
     FM192100 17006KT P6SM FEW100 SCT220=

USA.gov is the U.S. government's official web portal to all federal, state and local government web resources and services.